Time;durP1;ratioP1;P1;durP2;ratioP2;P2;SDS_P1;SDS_P2;PMS_P1;PMS_P2;Temp;Humidity;BMP_temperature;BMP_pressure;BME280_temperature;BME280_humidity;BME280_pressure;Samples;Min_cycle;Max_cycle;Signal;HPM_P1;HPM_P2
2022/12/22 03:26:16;;;;;;;49.55;19.65;;;;;;;6.48;53.37;98697.91;4336095;33;20524;-84
2022/12/22 03:28:41;;;;;;;47.85;21.27;;;;;;;6.31;53.67;98692.47;4335813;33;20088;-84
2022/12/22 03:31:07;;;;;;;49.05;21.10;;;;;;;6.40;53.47;98686.06;4335819;33;20103;-84
2022/12/22 03:33:33;;;;;;;48.67;21.60;;;;;;;6.53;53.27;98687.28;4322449;33;20106;-84
2022/12/22 03:35:59;;;;;;;48.60;20.37;;;;;;;6.57;53.32;98685.38;4335798;33;20096;-84
2022/12/22 03:38:24;;;;;;;54.03;22.60;;;;;;;6.63;53.55;98682.53;4335836;33;20091;-84
2022/12/22 03:40:50;;;;;;;48.42;20.67;;;;;;;6.66;54.07;98677.13;4335782;33;20110;-84
2022/12/22 03:49:08;;;;;;;48.55;21.10;;;;;;;6.74;54.71;98658.50;4334917;33;20129;-84
2022/12/22 03:51:30;;;;;;;47.88;20.85;;;;;;;6.74;54.90;98661.13;4335598;33;20448;-84
2022/12/22 03:53:56;;;;;;;51.70;21.08;;;;;;;6.67;55.04;98664.00;4335635;33;20088;-84
2022/12/22 03:56:21;;;;;;;49.83;22.62;;;;;;;6.69;55.36;98667.41;4335536;33;20445;-84
2022/12/22 03:58:47;;;;;;;51.10;20.02;;;;;;;6.70;55.61;98670.88;4335684;33;20107;-85
2022/12/22 04:01:12;;;;;;;45.47;19.10;;;;;;;6.74;55.65;98674.22;4335419;33;20393;-85
2022/12/22 04:03:37;;;;;;;44.80;19.40;;;;;;;6.74;55.53;98676.84;4335562;33;20106;-85
2022/12/22 04:06:03;;;;;;;42.60;18.60;;;;;;;6.72;55.39;98676.88;4334476;33;20162;-84
2022/12/22 04:08:28;;;;;;;47.03;19.90;;;;;;;6.75;55.56;98678.56;4335614;33;20092;-84
2022/12/22 04:13:38;;;;;;;40.38;18.80;;;;;;;6.68;55.38;98676.19;4335563;33;20373;-85
2022/12/22 04:16:03;;;;;;;46.72;18.90;;;;;;;6.71;55.69;98692.69;4335470;33;20100;-85
2022/12/22 04:18:29;;;;;;;45.38;20.25;;;;;;;6.52;56.28;98693.41;4335538;33;20083;-85
2022/12/22 04:20:54;;;;;;;46.50;19.85;;;;;;;6.66;56.42;98688.50;4334315;33;20114;-85
2022/12/22 04:23:20;;;;;;;46.63;21.08;;;;;;;6.68;56.59;98680.53;4335492;33;20080;-86
2022/12/22 04:25:45;;;;;;;46.83;20.20;;;;;;;6.71;56.82;98685.66;4335506;33;20091;-83
2022/12/22 04:28:10;;;;;;;48.30;21.58;;;;;;;6.77;56.80;98680.19;4321826;33;20401;-83
2022/12/22 04:30:36;;;;;;;48.65;21.25;;;;;;;6.79;57.03;98683.59;4335357;33;20102;-84
2022/12/22 04:33:01;;;;;;;46.83;20.20;;;;;;;6.68;57.39;98680.53;4335374;33;20140;-84
2022/12/22 04:35:26;;;;;;;49.05;21.15;;;;;;;6.75;57.39;98687.25;4335413;33;20083;-86
2022/12/22 04:37:52;;;;;;;47.72;20.20;;;;;;;6.42;58.18;98677.22;4335348;33;20087;-86
2022/12/22 04:40:17;;;;;;;49.72;21.05;;;;;;;6.54;58.10;98682.87;4335207;33;20091;-86
2022/12/22 04:42:42;;;;;;;50.17;21.08;;;;;;;6.51;58.12;98681.25;4335467;33;20142;-87
2022/12/22 04:45:08;;;;;;;47.30;20.90;;;;;;;6.61;58.00;98671.25;4335059;33;20131;-86
2022/12/22 04:47:34;;;;;;;43.53;19.70;;;;;;;6.67;57.87;98673.63;4335317;33;20118;-85
2022/12/22 04:49:59;;;;;;;47.58;20.52;;;;;;;6.67;57.57;98668.38;4335442;33;20079;-85
2022/12/22 04:52:25;;;;;;;49.30;21.40;;;;;;;6.66;57.38;98671.91;4335232;33;20076;-85
2022/12/22 04:54:51;;;;;;;46.92;20.42;;;;;;;6.71;57.23;98671.75;4335300;33;20431;-85
2022/12/22 04:57:16;;;;;;;48.95;20.25;;;;;;;6.79;57.13;98664.41;4335248;33;20100;-85
2022/12/22 04:59:41;;;;;;;42.38;20.60;;;;;;;6.78;57.00;98663.56;4335274;33;20087;-84
2022/12/22 05:02:07;;;;;;;48.92;21.17;;;;;;;6.78;57.04;98658.34;4335045;33;20429;-85
2022/12/22 05:04:32;;;;;;;50.08;21.73;;;;;;;6.79;57.04;98667.87;4335288;33;20104;-85
2022/12/22 05:06:58;;;;;;;46.13;20.60;;;;;;;6.79;57.10;98653.94;4335232;33;20079;-85
2022/12/22 05:09:23;;;;;;;42.33;19.50;;;;;;;6.83;57.14;98666.84;4335110;33;20146;-85
2022/12/22 05:11:48;;;;;;;51.78;22.83;;;;;;;6.80;57.11;98669.59;4335246;33;20076;-85
2022/12/22 05:14:14;;;;;;;53.22;21.52;;;;;;;6.82;57.04;98659.91;4335054;33;20123;-85
2022/12/22 05:16:39;;;;;;;47.42;21.12;;;;;;;6.79;56.89;98665.25;4335103;33;20092;-85
2022/12/22 05:19:05;;;;;;;49.03;22.00;;;;;;;6.80;56.90;98666.97;4335137;33;20465;-86
2022/12/22 05:21:31;;;;;;;49.38;22.52;;;;;;;6.84;56.95;98665.94;4335142;33;20132;-87
2022/12/22 05:23:56;;;;;;;52.72;21.85;;;;;;;6.87;56.99;98663.16;4335013;33;20430;-86
2022/12/22 05:26:21;;;;;;;51.28;21.85;;;;;;;6.88;57.02;98670.13;4333480;33;20111;-86
2022/12/22 05:28:47;;;;;;;52.35;22.87;;;;;;;6.90;56.93;98662.22;4335144;33;20136;-84
2022/12/22 05:31:18;;;;;;;53.70;24.25;;;;;;;6.87;56.77;98671.03;4335016;33;20096;-84
2022/12/22 05:33:44;;;;;;;51.30;22.55;;;;;;;6.90;56.67;98675.31;4335050;33;20104;-84
2022/12/22 05:36:10;;;;;;;54.17;22.58;;;;;;;6.66;57.33;98678.03;4321708;33;20460;-84
2022/12/22 05:38:35;;;;;;;50.42;23.58;;;;;;;6.66;57.10;98669.28;4335095;33;20084;-83
2022/12/22 05:41:01;;;;;;;50.97;21.98;;;;;;;6.76;56.74;98667.16;4321789;33;20092;-83
2022/12/22 05:43:26;;;;;;;52.80;23.55;;;;;;;6.56;56.75;98670.59;4334956;33;20162;-83
2022/12/22 05:45:52;;;;;;;58.00;23.20;;;;;;;6.62;56.86;98659.84;4335062;33;20117;-85
2022/12/22 05:48:18;;;;;;;55.63;22.85;;;;;;;6.59;56.94;98655.59;4334956;33;20118;-85
2022/12/22 05:50:43;;;;;;;57.85;25.58;;;;;;;6.63;57.09;98658.97;4321647;33;20444;-85
2022/12/22 05:53:08;;;;;;;58.15;24.37;;;;;;;6.68;57.26;98657.00;4334998;33;20096;-85
2022/12/22 05:55:34;;;;;;;56.05;24.00;;;;;;;6.47;58.08;98645.63;4334829;33;20095;-85
2022/12/22 05:58:00;;;;;;;51.70;23.75;;;;;;;6.60;57.83;98649.44;4334917;33;20087;-85
2022/12/22 06:00:27;;;;;;;56.45;23.55;;;;;;;6.65;57.78;98650.13;4334732;33;20088;-85
2022/12/22 06:02:53;;;;;;;57.53;23.75;;;;;;;6.68;57.69;98657.88;4334846;33;20457;-85
2022/12/22 06:05:18;;;;;;;51.53;22.45;;;;;;;6.71;57.62;98667.34;4334998;33;20091;-84
2022/12/22 06:07:44;;;;;;;55.70;24.65;;;;;;;6.72;57.61;98670.81;4334761;33;20088;-84
2022/12/22 06:10:10;;;;;;;55.35;24.33;;;;;;;6.71;57.59;98667.34;4334843;33;20093;-85
2022/12/22 06:12:35;;;;;;;56.05;24.25;;;;;;;6.61;57.56;98661.63;4321486;33;20374;-85
2022/12/22 06:15:00;;;;;;;52.08;22.95;;;;;;;6.65;57.53;98665.81;4334642;33;20084;-86
2022/12/22 06:17:26;;;;;;;53.13;22.13;;;;;;;6.69;57.57;98670.03;4333584;33;20099;-86
2022/12/22 06:19:51;;;;;;;55.85;22.55;;;;;;;6.72;57.49;98669.03;4334619;33;20092;-86
2022/12/22 06:22:16;;;;;;;56.63;22.87;;;;;;;6.72;57.42;98669.03;4334650;33;20092;-86
2022/12/22 06:24:42;;;;;;;50.70;22.75;;;;;;;6.64;57.34;98663.25;4334734;33;20393;-85
2022/12/22 06:27:09;;;;;;;51.70;22.27;;;;;;;6.65;57.33;98672.84;4334414;33;20071;-85
2022/12/22 06:29:35;;;;;;;52.42;24.63;;;;;;;6.66;57.23;98664.94;4321247;33;20456;-85
2022/12/22 06:32:01;;;;;;;51.40;23.20;;;;;;;6.67;57.10;98668.38;4334600;33;20118;-85
2022/12/22 06:34:26;;;;;;;47.33;21.85;;;;;;;6.67;57.01;98671.84;4334412;33;20142;-84
2022/12/22 06:36:51;;;;;;;51.45;23.05;;;;;;;6.67;57.07;98671.84;4334441;33;20488;-85
2022/12/22 06:39:17;;;;;;;51.10;22.77;;;;;;;6.70;57.23;98673.47;4333244;33;20084;-85
2022/12/22 06:44:26;;;;;;;53.75;23.92;;;;;;;6.70;57.31;98681.34;4333535;33;20130;-85
2022/12/22 06:46:52;;;;;;;54.97;24.83;;;;;;;6.73;57.44;98688.22;4334384;33;20084;-85
2022/12/22 06:49:17;;;;;;;55.22;23.08;;;;;;;6.74;57.48;98693.41;4334351;33;20461;-85
2022/12/22 06:51:43;;;;;;;51.25;23.08;;;;;;;6.12;58.78;98694.09;4334364;33;20433;-83
2022/12/22 06:54:08;;;;;;;55.75;23.40;;;;;;;6.44;58.24;98692.88;4334236;33;20088;-83
2022/12/22 06:56:33;;;;;;;55.25;22.95;;;;;;;6.36;58.38;98684.47;4334389;33;20091;-83
2022/12/22 06:58:59;;;;;;;53.92;24.83;;;;;;;6.34;58.55;98697.59;4334334;33;20100;-83
2022/12/22 07:01:25;;;;;;;55.22;24.58;;;;;;;6.45;58.47;98697.16;4334005;33;20104;-83
2022/12/22 07:03:50;;;;;;;59.92;23.70;;;;;;;6.40;58.77;98694.75;4334146;33;20118;-82
2022/12/22 07:06:19;;;;;;;55.70;23.23;;;;;;;6.02;59.96;98694.44;4320857;33;20105;-82
2022/12/22 07:08:45;;;;;;;51.80;23.33;;;;;;;6.23;59.51;98687.53;4334111;33;20444;-82
2022/12/22 07:11:10;;;;;;;58.13;23.85;;;;;;;6.23;59.65;98694.53;4332877;33;20104;-82
2022/12/22 07:13:36;;;;;;;59.72;24.37;;;;;;;6.16;59.90;98688.72;4333930;33;20095;-83
2022/12/22 07:16:03;;;;;;;56.55;25.77;;;;;;;5.97;60.45;98691.16;4333988;33;20087;-84
2022/12/22 07:18:30;;;;;;;60.35;26.23;;;;;;;5.88;60.59;98694.06;4334022;33;20150;-82
2022/12/22 07:20:56;;;;;;;56.28;25.17;;;;;;;6.03;60.54;98687.47;4334004;33;20453;-84
2022/12/22 07:23:22;;;;;;;56.78;25.50;;;;;;;6.20;60.09;98692.03;4333945;33;20110;-84
2022/12/22 07:25:47;;;;;;;64.40;27.40;;;;;;;6.22;60.22;98687.59;4333952;33;20432;-84
2022/12/22 07:28:12;;;;;;;59.85;24.63;;;;;;;6.29;60.01;98689.91;4333616;33;20433;-84
2022/12/22 07:30:38;;;;;;;55.33;25.42;;;;;;;6.25;59.88;98690.09;4333893;33;20084;-84
2022/12/22 07:33:03;;;;;;;62.97;24.45;;;;;;;6.32;59.88;98699.44;4320596;33;20161;-83
2022/12/22 07:35:29;;;;;;;65.80;27.40;;;;;;;6.45;59.67;98686.69;4333900;33;20106;-83
2022/12/22 07:37:54;;;;;;;56.45;25.23;;;;;;;6.41;59.62;98692.97;4333726;33;20083;-82
2022/12/22 07:40:20;;;;;;;57.78;24.98;;;;;;;6.53;59.18;98689.00;4333497;33;20463;-83
2022/12/22 07:42:45;;;;;;;58.38;26.35;;;;;;;6.50;58.72;98690.84;4333562;33;20092;-83
2022/12/22 07:45:12;;;;;;;57.30;25.02;;;;;;;6.55;58.40;98693.28;4332570;33;20096;-83
2022/12/22 07:47:38;;;;;;;60.25;26.00;;;;;;;6.20;59.28;98707.72;4320199;33;20076;-83
2022/12/22 07:52:48;;;;;;;60.33;25.48;;;;;;;6.09;60.09;98716.00;4324533;33;20166;-84
2022/12/22 07:55:14;;;;;;;60.47;24.87;;;;;;;6.36;59.60;98711.47;4335392;33;20444;-81
2022/12/22 07:57:39;;;;;;;61.95;24.10;;;;;;;6.54;59.43;98706.44;4334553;33;20084;-80
2022/12/22 08:00:06;;;;;;;55.78;24.52;;;;;;;6.16;60.12;98708.75;4335678;33;20088;-80
2022/12/22 08:02:31;;;;;;;58.40;24.85;;;;;;;6.28;59.75;98700.47;4322292;33;20477;-81
2022/12/22 08:04:56;;;;;;;57.40;26.10;;;;;;;6.56;58.94;98700.22;4322496;33;20131;-82
2022/12/22 08:07:22;;;;;;;58.22;26.02;;;;;;;6.66;58.21;98700.69;4335839;33;20114;-83
2022/12/22 08:09:47;;;;;;;58.13;27.08;;;;;;;6.77;57.98;98698.50;4322416;33;20519;-83
2022/12/22 08:12:13;;;;;;;64.28;27.42;;;;;;;6.89;57.87;98698.03;4335712;33;20139;-86
2022/12/22 08:14:38;;;;;;;59.92;26.92;;;;;;;7.09;57.25;98701.59;4335787;33;20083;-85
2022/12/22 08:17:03;;;;;;;61.00;26.02;;;;;;;6.61;57.58;98698.28;4322388;33;20173;-84
2022/12/22 08:19:29;;;;;;;62.55;26.90;;;;;;;7.02;57.05;98694.88;4322341;33;20107;-84
2022/12/22 08:21:54;;;;;;;57.92;26.30;;;;;;;7.23;56.93;98693.97;4335811;33;20456;-83
2022/12/22 08:24:20;;;;;;;58.28;25.77;;;;;;;7.40;56.77;98697.66;4335656;33;20079;-85
2022/12/22 08:26:47;;;;;;;65.22;28.92;;;;;;;7.47;56.73;98697.34;4335619;33;20107;-81
2022/12/22 08:29:21;;;;;;;57.53;26.02;;;;;;;7.64;56.40;98693.09;4335720;33;20096;-80
2022/12/22 08:31:46;;;;;;;61.22;26.55;;;;;;;7.74;56.32;98683.06;4322344;33;20111;-80
2022/12/22 08:34:14;;;;;;;61.47;27.35;;;;;;;7.85;56.06;98686.06;4334551;33;20460;-82
2022/12/22 08:36:45;;;;;;;61.80;26.83;;;;;;;7.91;55.87;98683.16;4322292;33;20544;-83
2022/12/22 08:39:12;;;;;;;57.40;25.55;;;;;;;7.95;55.86;98679.47;4335763;33;20540;-83
2022/12/22 08:41:49;;;;;;;54.63;26.08;;;;;;;7.98;55.65;98671.47;4322363;33;20095;-87
2022/12/22 08:44:25;;;;;;;59.92;27.83;;;;;;;8.01;55.55;98684.44;4330054;33;20152;-87
2022/12/22 08:46:52;;;;;;;56.45;25.67;;;;;;;7.99;55.39;98691.53;4332870;33;20582;-85
2022/12/22 08:49:17;;;;;;;57.08;26.48;;;;;;;8.04;55.39;98694.78;4332012;33;20449;-85
2022/12/22 08:51:43;;;;;;;60.80;27.35;;;;;;;8.02;54.84;98695.78;4319396;33;20117;-85
2022/12/22 08:54:09;;;;;;;62.28;27.02;;;;;;;8.04;54.83;98700.03;4319595;33;20111;-85
2022/12/22 08:56:34;;;;;;;65.43;28.00;;;;;;;8.05;54.69;98693.88;4319608;33;20088;-92
2022/12/22 08:59:03;;;;;;;60.03;27.17;;;;;;;8.06;54.42;98694.72;4332471;33;20096;-84
2022/12/22 09:01:30;;;;;;;59.72;27.13;;;;;;;7.90;54.85;98705.06;4317009;33;222135;-86
2022/12/22 09:03:56;;;;;;;62.67;28.73;;;;;;;8.05;54.83;98696.50;4328628;33;20122;-84
2022/12/22 09:06:22;;;;;;;60.65;27.65;;;;;;;7.59;55.30;98684.59;4333468;33;20107;-86
2022/12/22 09:08:47;;;;;;;54.67;25.92;;;;;;;7.88;55.05;98683.31;4332139;33;20183;-89
2022/12/22 09:11:14;;;;;;;56.15;26.65;;;;;;;8.05;54.57;98680.78;4332866;33;20139;-90
2022/12/22 09:13:39;;;;;;;58.20;26.75;;;;;;;8.19;53.89;98672.25;4333430;33;20190;-89
2022/12/22 09:16:08;;;;;;;56.00;28.35;;;;;;;8.23;53.94;98668.56;4319824;33;20096;-90
2022/12/22 09:18:34;;;;;;;61.00;28.77;;;;;;;8.28;53.57;98657.84;4319959;33;20427;-87
2022/12/22 09:20:59;;;;;;;64.53;28.92;;;;;;;8.31;53.63;98664.72;4319808;33;20378;-92
2022/12/22 09:23:25;;;;;;;63.00;27.08;;;;;;;8.33;53.47;98662.88;4333363;33;20088;-91
2022/12/22 09:25:51;;;;;;;57.60;26.25;;;;;;;8.35;53.40;98661.88;4320139;33;20152;-90
2022/12/22 09:28:16;;;;;;;55.78;27.25;;;;;;;8.40;52.82;98652.03;4333216;33;20180;-87
2022/12/22 09:30:42;;;;;;;55.30;26.95;;;;;;;8.45;52.70;98638.69;4331811;33;20195;-88
2022/12/22 09:33:07;;;;;;;54.78;26.42;;;;;;;8.51;52.62;98629.66;4320202;33;20095;-91
2022/12/22 09:35:32;;;;;;;62.22;27.15;;;;;;;8.48;52.68;98632.44;4333829;33;20147;-87
2022/12/22 09:37:58;;;;;;;59.53;27.37;;;;;;;8.51;52.33;98645.44;4336447;33;20123;-85
2022/12/22 09:40:25;;;;;;;57.17;28.00;;;;;;;8.14;53.04;98642.75;4332330;33;20151;-85
2022/12/22 09:42:50;;;;;;;61.47;26.92;;;;;;;8.38;52.93;98640.75;4333450;33;20170;-87
2022/12/22 09:45:20;;;;;;;61.88;29.65;;;;;;;8.43;52.78;98637.91;4333360;33;20136;-86
2022/12/22 09:47:52;;;;;;;71.25;31.02;;;;;;;7.25;55.20;98646.75;4319354;33;20152;-86
2022/12/22 09:50:22;;;;;;;67.05;31.10;;;;;;;7.83;54.09;98636.28;4331960;33;20891;-85
2022/12/22 09:52:59;;;;;;;65.60;31.45;;;;;;;8.15;53.17;98639.22;4317411;33;20111;-86
2022/12/22 09:55:25;;;;;;;63.63;30.08;;;;;;;8.26;53.05;98629.03;4315746;33;20125;-86
2022/12/22 09:57:52;;;;;;;65.55;28.35;;;;;;;8.32;52.76;98634.91;4332646;33;20178;-86
2022/12/22 10:00:20;;;;;;;63.63;28.47;;;;;;;8.38;52.64;98626.75;4332702;33;20096;-86
2022/12/22 10:02:57;;;;;;;58.25;29.65;;;;;;;8.40;52.39;98617.03;4319490;33;20182;-87
2022/12/22 10:06:10;;;;;;;63.83;29.02;;;;;;;8.36;52.29;98624.19;4332814;33;20131;-86
2022/12/22 10:08:37;;;;;;;63.78;29.80;;;;;;;8.19;52.60;98630.28;4301414;33;20108;-88
2022/12/22 10:11:02;;;;;;;68.22;31.40;;;;;;;8.21;52.62;98627.56;4287147;33;20105;-88
2022/12/22 10:13:28;;;;;;;65.35;32.28;;;;;;;8.21;52.61;98615.28;4295867;33;20190;-87
2022/12/22 10:15:54;;;;;;;73.80;33.72;;;;;;;8.24;52.89;98622.16;4300148;33;20504;-85
2022/12/22 10:18:23;;;;;;;70.75;33.65;;;;;;;8.28;53.08;98613.22;4301462;33;20170;-86
2022/12/22 10:21:03;;;;;;;67.00;31.40;;;;;;;8.32;53.33;98613.94;4301730;33;20138;-86
2022/12/22 10:23:29;;;;;;;70.82;32.58;;;;;;;8.31;53.24;98613.09;4301605;33;20120;-86
2022/12/22 10:25:54;;;;;;;62.20;31.45;;;;;;;8.45;52.82;98602.78;4286513;33;20543;-87
2022/12/22 10:28:24;;;;;;;66.70;32.72;;;;;;;8.60;52.75;98600.34;4301302;33;20175;-86
2022/12/22 10:31:09;;;;;;;64.68;31.92;;;;;;;8.72;52.18;98599.72;4289106;33;20237;-87
2022/12/22 10:33:34;;;;;;;67.93;31.30;;;;;;;8.68;51.92;98598.19;4300948;33;20131;-86
2022/12/22 10:36:00;;;;;;;64.40;30.90;;;;;;;8.84;51.64;98593.84;4300672;33;20545;-85
2022/12/22 10:38:28;;;;;;;58.50;29.30;;;;;;;8.92;51.27;98588.19;4289775;33;20160;-85
2022/12/22 10:41:20;;;;;;;67.97;29.65;;;;;;;8.91;51.12;98585.69;4283630;33;20120;-86
2022/12/22 10:44:20;;;;;;;60.70;29.40;;;;;;;9.07;50.61;98583.94;4299693;33;20092;-87
2022/12/22 10:46:47;;;;;;;63.87;29.12;;;;;;;9.11;50.40;98574.13;4322501;33;20083;-86
2022/12/22 10:49:17;;;;;;;66.10;31.23;;;;;;;9.11;50.34;98564.47;4331500;33;20155;-86
2022/12/22 10:51:47;;;;;;;60.12;28.90;;;;;;;9.15;50.43;98559.91;4331352;33;20204;-87
2022/12/22 10:54:31;;;;;;;57.90;27.87;;;;;;;9.13;50.59;98565.22;4318886;33;20205;-85
2022/12/22 10:57:24;;;;;;;64.45;30.20;;;;;;;9.00;50.48;98558.91;4319193;33;20384;-83
2022/12/22 10:59:52;;;;;;;63.30;30.35;;;;;;;8.79;50.28;98581.91;4330080;33;20116;-82
2022/12/22 11:02:24;;;;;;;;;;;;;;;8.75;50.51;98582.94;4319306;33;20134;-82
2022/12/22 11:04:50;;;;;;;62.50;29.52;;;;;;;8.77;50.58;98576.72;4332026;33;20080;-83
2022/12/22 11:07:16;;;;;;;64.25;28.73;;;;;;;8.80;50.95;98573.06;4330983;33;20100;-85
2022/12/22 11:09:42;;;;;;;64.62;29.42;;;;;;;8.78;51.07;98575.78;4319259;33;20092;-85
2022/12/22 11:12:19;;;;;;;61.42;27.95;;;;;;;8.74;51.09;98574.22;4331428;33;20159;-83
2022/12/22 11:14:53;;;;;;;60.20;27.52;;;;;;;8.61;51.73;98570.53;4332327;33;20080;-84
2022/12/22 11:17:43;;;;;;;56.22;27.62;;;;;;;8.73;51.72;98563.81;4332363;33;20100;-83
2022/12/22 11:20:23;;;;;;;62.05;28.50;;;;;;;8.77;51.63;98565.34;4316794;33;20138;-83
2022/12/22 11:23:02;;;;;;;60.08;27.67;;;;;;;8.85;51.70;98560.56;4332460;33;20103;-83
2022/12/22 11:25:51;;;;;;;61.25;27.50;;;;;;;8.88;51.57;98560.37;4319956;33;20103;-82
2022/12/22 11:28:27;;;;;;;57.42;27.83;;;;;;;8.94;51.46;98554.81;4318485;33;20411;-83
2022/12/22 11:31:14;;;;;;;70.20;31.12;;;;;;;8.94;51.56;98544.31;4332987;33;20460;-84
2022/12/22 11:33:54;;;;;;;62.95;29.45;;;;;;;9.03;51.34;98535.13;4333809;33;20133;-83
2022/12/22 11:36:38;;;;;;;67.78;29.27;;;;;;;9.20;51.19;98535.06;4334128;33;20167;-85
2022/12/22 11:39:10;;;;;;;59.40;28.80;;;;;;;9.25;50.55;98529.56;4323221;33;20111;-83
2022/12/22 11:41:38;;;;;;;59.60;27.52;;;;;;;9.19;50.57;98550.91;4320863;33;20174;-84
2022/12/22 11:44:35;;;;;;;67.30;30.17;;;;;;;9.21;50.44;98562.19;4333613;33;20163;-82
2022/12/22 11:47:26;;;;;;;67.78;30.80;;;;;;;9.13;50.57;98554.72;4334108;33;20158;-83
2022/12/22 11:49:58;;;;;;;69.75;30.90;;;;;;;9.23;50.88;98558.56;4328422;33;20118;-79
2022/12/22 11:52:33;;;;;;;63.67;30.15;;;;;;;9.42;50.79;98560.22;4322213;33;20156;-83
2022/12/22 11:55:30;;;;;;;64.85;30.23;;;;;;;8.80;51.90;98560.78;4333693;33;20107;-92
2022/12/22 11:58:38;;;;;;;61.80;29.25;;;;;;;9.09;51.26;98560.22;4312655;33;20092;-94
2022/12/22 12:01:41;;;;;;;64.37;29.25;;;;;;;9.13;50.98;98544.19;4325837;33;20075;-92
2022/12/22 12:04:31;;;;;;;59.92;28.30;;;;;;;8.92;51.68;98548.78;4333414;33;20104;-89
2022/12/22 12:07:15;;;;;;;62.78;29.95;;;;;;;8.94;51.88;98556.59;4333827;33;20140;-90
2022/12/22 12:10:02;;;;;;;59.67;28.30;;;;;;;9.18;51.59;98552.69;4332530;33;20114;-90
2022/12/22 12:12:49;;;;;;;63.53;28.87;;;;;;;9.12;51.06;98552.19;4333575;33;20104;-90
2022/12/22 12:15:26;;;;;;;64.75;29.20;;;;;;;8.59;52.28;98561.88;4320207;33;20108;-92
2022/12/22 12:18:07;;;;;;;66.35;28.55;;;;;;;8.40;52.52;98549.66;4308309;33;20072;-84
2022/12/22 12:20:39;;;;;;;63.50;28.80;;;;;;;8.55;52.21;98542.78;4322588;33;20095;-83
2022/12/22 12:23:06;;;;;;;58.75;29.20;;;;;;;8.68;52.06;98531.69;4333218;33;20585;-86
2022/12/22 12:25:40;;;;;;;67.68;29.70;;;;;;;8.53;52.40;98536.78;4333999;33;20099;-83
2022/12/22 12:28:19;;;;;;;65.93;29.02;;;;;;;8.77;52.16;98518.94;4320333;33;20108;-82
2022/12/22 12:30:53;;;;;;;60.45;28.70;;;;;;;8.78;52.00;98533.75;4332443;33;20183;-87
2022/12/22 12:33:37;;;;;;;62.40;29.37;;;;;;;8.96;51.53;98542.47;4332773;33;20091;-85
2022/12/22 12:36:36;;;;;;;62.35;30.60;;;;;;;9.01;51.76;98558.00;4332176;33;20142;-82
2022/12/22 12:39:12;;;;;;;62.33;30.10;;;;;;;8.71;51.99;98589.28;4344594;33;20108;-84
2022/12/22 12:41:55;;;;;;;62.55;29.33;;;;;;;8.62;52.38;98580.09;4343618;33;20478;-85
2022/12/22 12:44:24;;;;;;;62.67;29.95;;;;;;;8.59;52.54;98582.87;4332146;33;20087;-84
2022/12/22 12:46:49;;;;;;;67.30;30.85;;;;;;;8.35;53.19;98583.13;4319915;33;20130;-85
2022/12/22 12:49:33;;;;;;;65.40;31.75;;;;;;;8.63;52.49;98589.66;4318824;33;20381;-87
2022/12/22 12:52:06;;;;;;;68.25;30.45;;;;;;;8.71;52.77;98579.66;4331603;33;20124;-86
2022/12/22 12:54:32;;;;;;;63.97;31.30;;;;;;;8.78;52.47;98581.03;4318191;33;20814;-86
2022/12/22 12:57:41;;;;;;;63.47;30.65;;;;;;;8.46;53.12;98587.91;4333040;33;20126;-85
2022/12/22 13:00:32;;;;;;;68.50;30.10;;;;;;;8.53;52.77;98584.03;4286526;33;20120;-85
2022/12/22 13:02:59;;;;;;;67.97;29.87;;;;;;;8.47;53.28;98573.84;4290033;33;20192;-84
2022/12/22 13:05:50;;;;;;;64.28;30.02;;;;;;;8.57;52.83;98574.22;4280542;33;20108;-85
2022/12/22 13:08:19;;;;;;;66.87;30.33;;;;;;;8.51;53.13;98577.16;4291650;33;20172;-84
2022/12/22 13:10:46;;;;;;;64.87;29.15;;;;;;;8.58;52.94;98571.53;4294113;33;20132;-85
2022/12/22 13:13:26;;;;;;;63.83;29.52;;;;;;;8.51;53.00;98559.63;4280786;33;20116;-85
2022/12/22 13:16:03;;;;;;;62.65;30.70;;;;;;;8.38;53.56;98569.00;4289468;33;20109;-85
2022/12/22 13:18:28;;;;;;;68.57;32.75;;;;;;;8.39;53.45;98566.31;4292632;33;20139;-85
2022/12/22 13:21:00;;;;;;;64.07;29.67;;;;;;;8.35;53.61;98556.03;4286799;33;21199;-86
2022/12/22 13:23:54;;;;;;;68.30;31.55;;;;;;;8.54;53.45;98549.00;4286883;33;20105;-84
2022/12/22 13:26:25;;;;;;;65.25;30.20;;;;;;;8.60;53.57;98546.03;4251703;33;20162;-81
2022/12/22 13:28:56;;;;;;;66.87;31.70;;;;;;;8.44;53.77;98547.72;4226435;33;20144;-83
2022/12/22 13:31:29;;;;;;;67.95;31.62;;;;;;;8.56;53.52;98539.25;4226983;33;20178;-84
2022/12/22 13:34:26;;;;;;;73.12;30.83;;;;;;;8.69;53.44;98530.75;4238246;33;20107;-83
2022/12/22 13:36:52;;;;;;;64.47;30.17;;;;;;;8.75;53.41;98528.66;4271770;33;20169;-84
2022/12/22 13:39:18;;;;;;;65.62;31.10;;;;;;;8.76;53.34;98516.38;4275978;33;20173;-84
2022/12/22 13:41:46;;;;;;;67.62;30.37;;;;;;;8.81;53.52;98501.25;4273132;33;20101;-83
2022/12/22 13:44:16;;;;;;;67.35;32.88;;;;;;;8.77;53.69;98494.41;4260910;33;20130;-86
2022/12/22 13:46:42;;;;;;;69.43;32.65;;;;;;;8.74;53.65;98495.44;4272942;33;20682;-86
2022/12/22 13:49:12;;;;;;;69.97;31.90;;;;;;;8.62;53.60;98475.91;4272389;33;20228;-86
2022/12/22 13:51:38;;;;;;;70.35;31.98;;;;;;;8.61;53.91;98470.75;4271671;33;20188;-87
2022/12/22 13:54:21;;;;;;;68.70;32.70;;;;;;;8.63;54.13;98458.38;4272608;33;20136;-85
2022/12/22 13:56:50;;;;;;;72.62;31.35;;;;;;;8.12;55.83;98478.44;4259350;33;20097;-86
2022/12/22 13:59:35;;;;;;;66.68;31.30;;;;;;;7.93;56.46;98468.84;4271678;33;20479;-86
2022/12/22 14:02:11;;;;;;;68.47;30.88;;;;;;;8.24;55.79;98465.56;4270390;33;20181;-86
2022/12/22 14:04:39;;;;;;;77.68;32.63;;;;;;;8.18;56.25;98468.50;4319834;33;20121;-85
2022/12/22 14:07:15;;;;;;;72.00;31.62;;;;;;;8.25;56.04;98479.53;4332424;33;20087;-85
2022/12/22 14:09:44;;;;;;;77.10;33.28;;;;;;;8.22;56.40;98471.81;4318351;33;20138;-85
2022/12/22 14:12:18;;;;;;;78.20;32.20;;;;;;;7.84;58.02;98490.28;4331755;33;20095;-90
2022/12/22 14:14:45;;;;;;;67.65;32.08;;;;;;;7.69;58.62;98465.66;4318887;33;20153;-82
2022/12/22 14:17:27;;;;;;;74.15;33.17;;;;;;;7.28;60.26;98476.28;4316442;33;20095;-84
2022/12/22 14:19:57;;;;;;;75.15;32.72;;;;;;;7.63;59.43;98486.91;4328033;33;20130;-84
2022/12/22 14:22:38;;;;;;;73.62;33.60;;;;;;;7.56;59.76;98496.84;4319086;33;20167;-84
2022/12/22 14:25:12;;;;;;;75.80;34.58;;;;;;;7.52;59.05;98486.59;4330799;33;20198;-84
2022/12/22 14:27:44;;;;;;;78.25;35.28;;;;;;;7.88;57.99;98479.59;4319659;33;20122;-85
2022/12/22 14:30:33;;;;;;;78.28;33.33;;;;;;;7.62;58.69;98499.16;4319889;33;20218;-84
2022/12/22 14:33:28;;;;;;;79.25;33.15;;;;;;;7.74;58.19;98499.50;4331981;33;20099;-84
2022/12/22 14:36:17;;;;;;;79.10;34.15;;;;;;;7.79;57.89;98501.00;4331395;33;20650;-84
2022/12/22 14:38:48;;;;;;;82.15;34.55;;;;;;;7.13;59.70;98535.50;4325210;33;20087;-83
2022/12/22 14:44:03;;;;;;;81.80;36.15;;;;;;;6.67;60.65;98535.72;4330281;33;20420;-85
2022/12/22 14:46:28;;;;;;;81.22;33.95;;;;;;;7.07;60.01;98533.16;4318371;33;20114;-85
2022/12/22 14:48:57;;;;;;;78.45;35.75;;;;;;;6.92;60.99;98539.06;4331375;33;20135;-85
2022/12/22 14:51:22;;;;;;;79.07;34.17;;;;;;;7.31;59.54;98531.19;4306750;33;20119;-86
2022/12/22 14:53:53;;;;;;;78.82;35.55;;;;;;;7.56;58.90;98533.53;4330894;33;20449;-86
2022/12/22 14:56:19;;;;;;;81.30;37.85;;;;;;;7.68;58.60;98529.50;4318908;33;20125;-85
2022/12/22 14:58:46;;;;;;;75.37;34.42;;;;;;;7.64;58.80;98514.84;4319180;33;20099;-85
2022/12/22 15:01:14;;;;;;;76.62;34.33;;;;;;;7.76;58.71;98516.03;4319010;33;20104;-85
2022/12/22 15:03:40;;;;;;;81.10;36.13;;;;;;;7.81;58.74;98504.41;4333276;33;20130;-85
2022/12/22 15:06:27;;;;;;;79.22;35.55;;;;;;;7.88;58.62;98497.09;4332856;33;20088;-85
2022/12/22 15:09:10;;;;;;;80.03;36.25;;;;;;;7.73;59.18;98490.81;4332106;33;20530;-81
2022/12/22 15:11:44;;;;;;;71.97;32.35;;;;;;;7.87;59.03;98477.03;4331501;33;20104;-84
2022/12/22 15:14:15;;;;;;;75.37;34.58;;;;;;;7.93;59.13;98486.38;4308406;33;20461;-91
2022/12/22 15:16:41;;;;;;;75.57;34.35;;;;;;;7.52;60.58;98487.44;4322805;33;20565;-87
2022/12/22 15:19:06;;;;;;;79.65;34.45;;;;;;;6.50;63.65;98494.56;4319861;33;20084;-85
2022/12/22 15:21:34;;;;;;;72.45;32.38;;;;;;;7.05;62.41;98490.44;4320511;33;20093;-86